Aérodrome :
LOGIN :

S'inscrire | Disclaimer

   EN    FR    IT 

 










Légende :    VFR   VFR Marginal   IFR   IFR Intensif   IFR Très Intensif
Visi : 
Plafond : 
>= 8 km
>= 3000ft
5 à 8 km
1000 à 3000 ft
1500m à 5 km
500 à 1000 ft
800 à 1500m
200 à 500 ft
< 800m
< 200 ft
Symboles :   Orages  Brouillard  Fortes neiges  Fortes précipitations  Vent > 20 kt
SIGMETs :   Divers  Orages  Givrage  Turbulence  Onde Orograph.  Cendres Volcan.






- Altitude de l'aérodrome : 353 ft
- Code IATA : ZAG


LDZA - Zagreb Pleso

DERNIER METAR :
  • 170500Z 00000KT 0600 R05/1800U R23/1300U FG SCT003 BKN040 09/08 Q1019 BECMG 1500 BR

METARs EXPIRÉS :
  • 170430Z 00000KT 1000 R05/1700D R23/0600N BCFG OVC002 09/08 Q1019 TEMPO 0600
  • 170400Z 00000KT 3000 BCFG BKN002 BKN040 08/07 Q1019 TEMPO 1500
  • 170330Z 00000KT 3000 BCFG BKN038 08/07 Q1019 TEMPO 0800
  • 170300Z 00000KT 3000 R05/1100D R23/1400U BCFG SCT040 09/08 Q1019 TEMPO 0800
  • 170230Z 00000KT 4000 MIFG FEW040 09/08 Q1019 TEMPO 1500 BCFG

TAF TAF LDZA
Valide du 17 à 00h jusqu'au 18 à 00h UTC


162325Z 1700/1800 VRB02KT CAVOK TX19/1713Z TN06/1704Z
TEMPO 1700/1708 BKN005
PROB40 1700/1710 3000 MIFG BR
PROB30 1700/1708 0200 FG VV001
ATIS : +385 1 6-259-214



MET'MAP, la Météo Aéronautique d'un coup d'oeil ! - Copyright ORBIFLY Décembre 2007 - Disclaimer

ORBIFLY MET'MAP TEAM :

Programmation & Développement : Alexandra Zaïnal
Conception & Développement : Baudouin d'Aumeries
Co-Programmation & Développement : Marc-Olivier Méhu
Soutien technique & logistique : Manuel Goepfert

Contact : metmap@orbifly.com




SOURCES & CREDITS :

   NOAA